createdAt,value
2024-04-11T00:00:06.450Z,5.43
2024-04-11T00:02:40.546Z,5.50
2024-04-11T00:05:09.510Z,4.97
2024-04-11T00:07:38.320Z,5.30
2024-04-11T00:10:06.915Z,5.23
2024-04-11T00:12:34.501Z,5.03
2024-04-11T00:15:03.057Z,5.57
2024-04-11T00:17:30.855Z,5.63
2024-04-11T00:19:58.589Z,5.10
2024-04-11T00:22:26.414Z,5.63
2024-04-11T00:24:53.796Z,5.87
2024-04-11T00:27:24.389Z,5.90
2024-04-11T00:29:52.389Z,5.60
2024-04-11T00:32:20.491Z,6.00
2024-04-11T00:34:48.276Z,6.33
2024-04-11T00:37:16.770Z,5.40
2024-04-11T00:39:45.140Z,5.50
2024-04-11T00:42:13.379Z,5.70
2024-04-11T00:44:41.075Z,5.70
2024-04-11T00:47:12.587Z,5.80
2024-04-11T00:49:48.608Z,5.60
2024-04-11T00:52:17.146Z,6.17
2024-04-11T00:54:46.151Z,5.70
2024-04-11T00:57:14.835Z,5.50
2024-04-11T00:59:43.247Z,5.70
2024-04-11T01:02:16.219Z,5.63
2024-04-11T01:04:47.742Z,5.40
2024-04-11T01:07:16.485Z,5.63
2024-04-11T01:09:46.313Z,5.37
2024-04-11T01:12:18.185Z,6.30
2024-04-11T01:14:48.327Z,5.17
2024-04-11T01:17:19.874Z,4.70
2024-04-11T01:19:51.271Z,5.37
2024-04-11T01:22:20.187Z,6.63
2024-04-11T01:24:49.303Z,5.10
2024-04-11T01:27:16.984Z,4.83
2024-04-11T01:29:45.336Z,5.00
2024-04-11T01:32:15.707Z,5.03
2024-04-11T01:34:44.983Z,4.60
2024-04-11T01:37:15.635Z,4.40
2024-04-11T01:39:44.175Z,4.53
2024-04-11T01:42:13.111Z,4.40
2024-04-11T01:44:41.309Z,4.97
2024-04-11T01:47:09.093Z,4.10
2024-04-11T01:49:36.554Z,3.90
2024-04-11T01:52:10.902Z,4.93
2024-04-11T01:54:42.757Z,4.07
2024-04-11T01:57:12.060Z,5.37
2024-04-11T01:59:42.902Z,4.30
2024-04-11T02:02:17.632Z,4.00
2024-04-11T02:04:46.604Z,4.00
2024-04-11T02:07:14.039Z,3.50
2024-04-11T02:09:42.443Z,3.97
2024-04-11T02:12:10.724Z,4.43
2024-04-11T02:14:39.968Z,4.70
2024-04-11T02:17:08.811Z,3.93
2024-04-11T02:19:38.276Z,3.10
2024-04-11T02:22:08.515Z,3.40
2024-04-11T02:24:39.471Z,3.63
2024-04-11T02:27:09.398Z,3.70
2024-04-11T02:29:38.565Z,3.53
2024-04-11T02:32:07.897Z,3.07
2024-04-11T02:34:40.317Z,3.20
2024-04-11T02:37:13.262Z,3.30
2024-04-11T02:39:40.720Z,3.10
2024-04-11T02:42:09.411Z,2.80
2024-04-11T02:44:36.926Z,2.50
2024-04-11T02:47:06.620Z,2.73
2024-04-11T02:49:35.846Z,2.90
2024-04-11T02:52:05.561Z,2.60
2024-04-11T02:54:33.935Z,3.20
2024-04-11T02:57:02.590Z,2.90
2024-04-11T02:59:30.039Z,3.07
2024-04-11T03:01:58.601Z,2.70
2024-04-11T03:04:26.142Z,2.10
2024-04-11T03:06:53.832Z,3.30
2024-04-11T03:09:21.690Z,2.63
2024-04-11T03:11:50.788Z,2.73
2024-04-11T03:14:18.181Z,2.87
2024-04-11T03:16:46.264Z,2.77
2024-04-11T03:19:14.426Z,2.70
2024-04-11T03:21:41.778Z,3.20
2024-04-11T03:24:09.922Z,2.47
2024-04-11T03:26:37.324Z,2.73
2024-04-11T03:29:04.774Z,1.90
2024-04-11T03:31:32.916Z,2.90
2024-04-11T03:34:06.085Z,1.93
2024-04-11T03:36:34.817Z,2.73
2024-04-11T03:39:12.442Z,2.60
2024-04-11T03:41:53.614Z,2.30
2024-04-11T03:44:22.974Z,2.90
2024-04-11T03:46:51.503Z,2.50
2024-04-11T03:49:26.702Z,2.53
2024-04-11T03:51:56.289Z,2.33
2024-04-11T03:54:23.855Z,2.90
2024-04-11T03:56:57.880Z,2.97
2024-04-11T03:59:29.902Z,2.73
2024-04-11T04:01:57.333Z,2.50
2024-04-11T04:04:25.246Z,2.00
2024-04-11T04:06:54.442Z,2.40
2024-04-11T04:09:22.723Z,2.67
2024-04-11T04:11:50.166Z,2.53
2024-04-11T04:14:17.940Z,2.50
2024-04-11T04:16:47.804Z,2.17
2024-04-11T04:19:15.451Z,2.30
2024-04-11T04:21:43.005Z,2.33
2024-04-11T04:24:11.519Z,2.33
2024-04-11T04:26:40.430Z,2.37
2024-04-11T04:29:09.602Z,2.53
2024-04-11T04:31:46.470Z,2.40
2024-04-11T04:34:17.905Z,2.20
2024-04-11T04:36:47.844Z,2.07
2024-04-11T04:39:17.926Z,2.20
2024-04-11T04:41:46.405Z,2.40
2024-04-11T04:44:14.075Z,3.33
2024-04-11T04:46:46.569Z,2.77
2024-04-11T04:49:16.121Z,2.70
2024-04-11T04:51:45.636Z,2.33
2024-04-11T04:54:15.479Z,2.30
2024-04-11T04:56:45.320Z,1.80
2024-04-11T04:59:13.790Z,2.20
2024-04-11T05:01:45.870Z,1.80
2024-04-11T05:04:17.195Z,2.13
2024-04-11T05:06:46.042Z,2.60
2024-04-11T05:09:13.519Z,1.90
2024-04-11T05:11:41.802Z,2.30
2024-04-11T05:14:10.163Z,2.70
2024-04-11T05:16:46.191Z,2.40
2024-04-11T05:19:17.394Z,2.13
2024-04-11T05:21:46.490Z,2.17
2024-04-11T05:24:14.312Z,2.80
2024-04-11T05:26:42.972Z,2.17
2024-04-11T05:29:13.160Z,2.03
2024-04-11T05:31:41.005Z,2.10
2024-04-11T05:34:15.315Z,2.10
2024-04-11T05:36:44.494Z,2.27
2024-04-11T05:39:16.091Z,2.33
2024-04-11T05:41:46.340Z,2.43
2024-04-11T05:44:13.980Z,2.30
2024-04-11T05:46:47.028Z,1.93
2024-04-11T05:49:18.214Z,2.40
2024-04-11T05:51:46.608Z,2.27
2024-04-11T05:54:14.524Z,2.77
2024-04-11T05:56:43.854Z,2.23
2024-04-11T05:59:13.616Z,1.70
2024-04-11T06:01:45.790Z,2.03
2024-04-11T06:04:13.232Z,1.97
2024-04-11T06:06:40.705Z,2.13
2024-04-11T06:09:09.599Z,2.80
2024-04-11T06:11:41.987Z,2.17
2024-04-11T06:14:11.220Z,1.90
2024-04-11T06:16:44.759Z,2.20
2024-04-11T06:19:12.895Z,2.43
2024-04-11T06:21:46.456Z,2.17
2024-04-11T06:24:16.367Z,2.43
2024-04-11T06:26:43.945Z,3.00
2024-04-11T06:29:13.218Z,2.10
2024-04-11T06:31:41.195Z,2.10
2024-04-11T06:34:10.628Z,2.90
2024-04-11T06:36:39.762Z,2.37
2024-04-11T06:39:15.037Z,2.63
2024-04-11T06:41:42.757Z,4.67
2024-04-11T06:44:14.080Z,2.73
2024-04-11T06:46:47.626Z,2.37
2024-04-11T06:49:15.400Z,3.10
2024-04-11T06:51:42.784Z,3.30
2024-04-11T06:54:13.748Z,3.10
2024-04-11T06:56:41.164Z,3.30
2024-04-11T06:59:12.548Z,3.50
2024-04-11T07:01:49.424Z,3.60
2024-04-11T07:04:18.110Z,3.30
2024-04-11T07:06:47.379Z,3.47
2024-04-11T07:09:16.082Z,3.40
2024-04-11T07:11:43.512Z,3.97
2024-04-11T07:14:17.113Z,4.10
2024-04-11T07:16:53.886Z,4.23
2024-04-11T07:19:21.571Z,4.53
2024-04-11T07:21:49.987Z,4.70
2024-04-11T07:24:18.370Z,4.43
2024-04-11T07:26:50.630Z,3.97
2024-04-11T07:29:18.182Z,4.67
2024-04-11T07:31:51.042Z,4.33
2024-04-11T07:34:18.944Z,5.23
2024-04-11T07:36:49.388Z,4.87
2024-04-11T07:39:18.270Z,4.90
2024-04-11T07:41:46.775Z,4.80
2024-04-11T07:44:20.087Z,5.03
2024-04-11T07:47:00.780Z,5.63
2024-04-11T07:49:38.963Z,5.03
2024-04-11T07:52:11.925Z,5.77
2024-04-11T07:54:46.865Z,5.20
2024-04-11T07:57:21.081Z,4.50
2024-04-11T07:59:50.235Z,4.97
2024-04-11T08:02:19.909Z,4.50
2024-04-11T08:04:49.130Z,5.17
2024-04-11T08:07:16.981Z,5.87
2024-04-11T08:09:56.844Z,4.87
2024-04-11T08:12:25.491Z,4.73
2024-04-11T08:14:53.875Z,4.67
2024-04-11T08:17:21.925Z,5.00
2024-04-11T08:19:56.632Z,5.40
2024-04-11T08:22:29.693Z,5.27
2024-04-11T08:24:57.622Z,5.10
2024-04-11T08:27:26.089Z,5.10
2024-04-11T08:29:53.981Z,5.10
2024-04-11T08:32:23.131Z,5.00
2024-04-11T08:34:51.878Z,5.57
2024-04-11T08:37:23.759Z,4.30
2024-04-11T08:39:51.789Z,4.40
2024-04-11T08:42:20.088Z,5.20
2024-04-11T08:44:59.463Z,5.00
2024-04-11T08:47:27.040Z,5.20
2024-04-11T08:49:54.810Z,4.57
2024-04-11T08:52:25.528Z,4.90
2024-04-11T08:54:54.269Z,4.53
2024-04-11T08:57:21.830Z,4.43
2024-04-11T08:59:51.653Z,4.70
2024-04-11T09:02:19.763Z,4.13
2024-04-11T09:04:51.543Z,4.47
2024-04-11T09:07:30.716Z,4.23
2024-04-11T09:10:05.961Z,4.30
2024-04-11T09:12:34.123Z,4.30
2024-04-11T09:15:08.589Z,4.63
2024-04-11T09:17:40.780Z,3.47
2024-04-11T09:20:13.818Z,4.47
2024-04-11T09:22:49.522Z,4.40
2024-04-11T09:25:19.259Z,4.10
2024-04-11T09:27:52.164Z,4.10
2024-04-11T09:30:22.142Z,4.07
2024-04-11T09:32:50.949Z,4.07
2024-04-11T09:35:20.264Z,3.77
2024-04-11T09:38:00.822Z,4.80
2024-04-11T09:43:18.681Z,4.43
2024-04-11T09:45:57.491Z,4.10
2024-04-11T09:48:33.201Z,4.13
2024-04-11T09:51:01.445Z,4.10
2024-04-11T09:53:34.126Z,3.70
2024-04-11T09:56:05.629Z,3.40
2024-04-11T09:58:43.211Z,4.50
2024-04-11T10:01:21.815Z,3.30
2024-04-11T10:03:50.184Z,4.40
2024-04-11T10:06:26.274Z,3.90
2024-04-11T10:08:55.150Z,4.20
2024-04-11T10:11:32.356Z,4.50
2024-04-11T10:14:03.726Z,4.07
2024-04-11T10:16:38.280Z,3.53
2024-04-11T10:19:07.093Z,3.23
2024-04-11T10:21:48.432Z,4.20
2024-04-11T10:24:33.908Z,4.77
2024-04-11T10:27:11.895Z,4.80
2024-04-11T10:29:48.043Z,4.77
2024-04-11T10:32:28.003Z,3.90
2024-04-11T10:34:59.363Z,3.30
2024-04-11T10:37:36.479Z,3.70
2024-04-11T10:40:11.123Z,5.33
2024-04-11T10:42:41.986Z,3.43
2024-04-11T10:45:18.949Z,3.87
2024-04-11T10:47:48.533Z,3.57
2024-04-11T10:50:17.602Z,3.70
2024-04-11T10:52:48.515Z,3.50
2024-04-11T10:55:30.374Z,3.77
2024-04-11T10:58:14.901Z,4.23
2024-04-11T11:01:04.658Z,4.00
2024-04-11T11:03:43.715Z,4.20
2024-04-11T11:06:16.441Z,4.50
2024-04-11T11:08:47.908Z,4.07
2024-04-11T11:11:20.298Z,3.90
2024-04-11T11:13:48.971Z,4.20
2024-04-11T11:16:22.615Z,4.47
2024-04-11T11:18:52.735Z,4.40
2024-04-11T11:21:23.905Z,5.13
2024-04-11T11:24:02.148Z,3.53
2024-04-11T11:26:44.811Z,4.70
2024-04-11T11:29:13.656Z,4.50
2024-04-11T11:31:44.334Z,4.40
2024-04-11T11:34:12.071Z,3.67
2024-04-11T11:36:50.779Z,4.63
2024-04-11T11:39:19.626Z,4.30
2024-04-11T11:41:51.173Z,4.90
2024-04-11T11:44:22.352Z,4.30
2024-04-11T11:46:51.426Z,4.60
2024-04-11T11:49:19.482Z,4.60
2024-04-11T11:51:49.000Z,4.57
2024-04-11T11:54:16.388Z,4.93
2024-04-11T11:56:44.142Z,4.63
2024-04-11T11:59:12.504Z,4.90
2024-04-11T12:01:52.964Z,5.07
2024-04-11T12:04:21.659Z,4.77
2024-04-11T12:06:57.041Z,5.30
2024-04-11T12:09:32.857Z,4.80
2024-04-11T12:12:22.459Z,4.60
2024-04-11T12:14:57.190Z,5.50
2024-04-11T12:17:27.572Z,5.60
2024-04-11T12:20:06.422Z,5.73
2024-04-11T12:22:37.344Z,5.67
2024-04-11T12:25:05.320Z,6.23
2024-04-11T12:27:33.810Z,6.47
2024-04-11T12:30:03.088Z,5.33
2024-04-11T12:32:31.764Z,6.70
2024-04-11T12:34:59.319Z,6.17
2024-04-11T12:37:36.735Z,6.73
2024-04-11T12:40:09.403Z,6.20
2024-04-11T12:42:39.394Z,6.70
2024-04-11T12:45:11.441Z,5.37
2024-04-11T12:47:49.642Z,4.97
2024-04-11T12:50:22.614Z,5.50
2024-04-11T12:52:51.036Z,5.57
2024-04-11T12:55:26.373Z,5.60
2024-04-11T12:58:03.636Z,4.60
2024-04-11T13:03:44.289Z,5.57
2024-04-11T13:06:23.443Z,5.40
2024-04-11T13:08:52.243Z,5.90
2024-04-11T13:11:38.202Z,5.90
2024-04-11T13:14:18.931Z,6.57
2024-04-11T13:17:01.788Z,6.17
2024-04-11T13:19:39.228Z,6.33
2024-04-11T13:22:09.652Z,6.20
2024-04-11T13:24:47.403Z,6.30
2024-04-11T13:27:17.698Z,6.40
2024-04-11T13:29:50.760Z,5.77
2024-04-11T13:32:22.067Z,7.30
2024-04-11T13:35:07.924Z,6.00
2024-04-11T13:37:48.663Z,6.87
2024-04-11T13:40:28.870Z,6.50
2024-04-11T13:43:00.515Z,6.40
2024-04-11T13:45:27.935Z,5.90
2024-04-11T13:48:00.172Z,6.23
2024-04-11T13:50:36.939Z,6.47
2024-04-11T13:53:06.685Z,5.83
2024-04-11T13:55:44.263Z,6.23
2024-04-11T13:58:15.372Z,6.40
2024-04-11T14:01:03.679Z,6.77
2024-04-11T14:03:47.255Z,6.27
2024-04-11T14:06:40.776Z,6.27
2024-04-11T14:09:11.692Z,6.97
2024-04-11T14:11:40.427Z,6.10
2024-04-11T14:14:12.981Z,7.73
2024-04-11T14:16:53.736Z,8.07
2024-04-11T14:19:46.035Z,10.07
2024-04-11T14:22:22.371Z,9.93
2024-04-11T14:25:04.833Z,7.97
2024-04-11T14:27:32.232Z,10.27
2024-04-11T14:30:02.096Z,8.97
2024-04-11T14:32:51.591Z,8.53
2024-04-11T14:35:41.115Z,9.00
2024-04-11T14:38:08.886Z,8.27
2024-04-11T14:40:42.363Z,8.53
2024-04-11T14:43:13.080Z,7.80
2024-04-11T14:45:44.715Z,7.90
2024-04-11T14:48:22.280Z,9.17
2024-04-11T14:50:57.322Z,9.90
2024-04-11T14:53:26.379Z,8.83
2024-04-11T14:55:57.264Z,9.77
2024-04-11T14:58:32.918Z,10.50
2024-04-11T15:01:01.573Z,10.13
2024-04-11T15:03:31.730Z,11.83
2024-04-11T15:05:59.390Z,11.43
2024-04-11T15:08:32.695Z,11.97
2024-04-11T15:11:02.588Z,10.00
2024-04-11T15:13:31.261Z,8.30
2024-04-11T15:16:11.286Z,8.27
2024-04-11T15:18:43.279Z,8.40
2024-04-11T15:21:31.017Z,7.70
2024-04-11T15:24:00.572Z,7.80
2024-04-11T15:26:28.848Z,7.13
2024-04-11T15:29:00.950Z,7.83
2024-04-11T15:31:31.874Z,8.33
2024-04-11T15:34:09.871Z,7.53
2024-04-11T15:36:54.189Z,7.30
2024-04-11T15:39:30.237Z,7.73
2024-04-11T15:41:58.588Z,8.27
2024-04-11T15:44:27.314Z,7.50
2024-04-11T15:46:55.322Z,7.63
2024-04-11T15:49:28.057Z,7.73
2024-04-11T15:51:58.750Z,6.97
2024-04-11T15:54:51.418Z,7.77
2024-04-11T15:57:21.678Z,6.50
2024-04-11T15:59:53.902Z,6.60
2024-04-11T16:02:21.820Z,7.33
2024-04-11T16:04:52.015Z,6.93
2024-04-11T16:07:27.913Z,7.17
2024-04-11T16:09:58.308Z,7.33
2024-04-11T16:12:27.023Z,6.77
2024-04-11T16:14:57.861Z,6.60
2024-04-11T16:17:33.916Z,5.97
2024-04-11T16:20:06.081Z,7.53
2024-04-11T16:22:36.556Z,7.50
2024-04-11T16:25:20.758Z,7.60
2024-04-11T16:27:49.017Z,7.60
2024-04-11T16:30:30.201Z,7.83
2024-04-11T16:32:58.603Z,7.90
2024-04-11T16:35:26.804Z,7.03
2024-04-11T16:38:08.919Z,6.50
2024-04-11T16:40:39.595Z,7.17
2024-04-11T16:43:11.396Z,7.30
2024-04-11T16:45:47.692Z,7.10
2024-04-11T16:48:18.321Z,7.43
2024-04-11T16:50:50.113Z,7.50
2024-04-11T16:53:34.148Z,7.27
2024-04-11T16:56:06.132Z,6.70
2024-04-11T16:58:59.485Z,7.10
2024-04-11T17:01:30.861Z,7.70
2024-04-11T17:04:07.137Z,7.23
2024-04-11T17:06:34.561Z,7.10
2024-04-11T17:09:09.166Z,7.60
2024-04-11T17:11:37.038Z,7.93
2024-04-11T17:14:07.288Z,7.60
2024-04-11T17:16:53.612Z,7.80
2024-04-11T17:19:32.187Z,9.07
2024-04-11T17:21:59.844Z,8.50
2024-04-11T17:24:37.332Z,8.63
2024-04-11T17:27:08.382Z,9.23
2024-04-11T17:30:01.120Z,8.33
2024-04-11T17:32:42.703Z,8.20
2024-04-11T17:35:22.724Z,7.80
2024-04-11T17:37:50.791Z,7.73
2024-04-11T17:40:42.153Z,9.33
2024-04-11T17:43:18.980Z,8.57
2024-04-11T17:45:58.897Z,7.97
2024-04-11T17:48:42.551Z,8.50
2024-04-11T17:51:17.771Z,8.80
2024-04-11T17:53:50.346Z,8.80
2024-04-11T17:56:25.469Z,9.20
2024-04-11T17:58:54.021Z,9.27
2024-04-11T18:01:24.944Z,8.40
2024-04-11T18:03:59.565Z,8.33
2024-04-11T18:06:44.588Z,8.90
2024-04-11T18:09:12.469Z,8.87
2024-04-11T18:12:00.085Z,9.17
2024-04-11T18:14:35.175Z,9.13
2024-04-11T18:17:12.410Z,9.37
2024-04-11T18:19:46.150Z,9.23
2024-04-11T18:22:15.675Z,8.67
2024-04-11T18:24:47.688Z,9.93
2024-04-11T18:27:15.308Z,9.83
2024-04-11T18:29:48.107Z,10.37
2024-04-11T18:32:16.095Z,10.53
2024-04-11T18:34:47.555Z,12.20
2024-04-11T18:37:15.971Z,12.10
2024-04-11T18:40:03.045Z,11.53
2024-04-11T18:42:38.745Z,11.33
2024-04-11T18:45:18.943Z,13.50
2024-04-11T18:47:46.734Z,13.17
2024-04-11T18:50:27.588Z,14.00
2024-04-11T18:53:04.274Z,14.30
2024-04-11T18:55:59.065Z,14.67
2024-04-11T18:58:28.984Z,15.00
2024-04-11T19:00:58.722Z,16.17
2024-04-11T19:03:30.017Z,14.87
2024-04-11T19:06:06.463Z,14.80
2024-04-11T19:08:37.115Z,16.80
2024-04-11T19:11:15.082Z,16.90
2024-04-11T19:13:45.390Z,18.60
2024-04-11T19:16:19.891Z,18.27
2024-04-11T19:18:54.388Z,17.67
2024-04-11T19:21:24.894Z,17.30
2024-04-11T19:23:55.610Z,17.83
2024-04-11T19:26:28.035Z,17.20
2024-04-11T19:29:06.772Z,18.20
2024-04-11T19:31:47.424Z,18.33
2024-04-11T19:34:20.988Z,18.67
2024-04-11T19:36:49.871Z,18.70
2024-04-11T19:39:21.190Z,17.23
2024-04-11T19:41:50.599Z,18.27
2024-04-11T19:44:21.693Z,17.57
2024-04-11T19:46:49.123Z,19.43
2024-04-11T19:49:17.659Z,19.97
2024-04-11T19:51:58.626Z,19.67
2024-04-11T19:54:32.315Z,19.30
2024-04-11T19:57:06.722Z,20.83
2024-04-11T19:59:35.227Z,18.30
2024-04-11T20:02:09.983Z,17.60
2024-04-11T20:04:37.883Z,18.53
2024-04-11T20:07:10.122Z,18.70
2024-04-11T20:09:39.721Z,19.00
2024-04-11T20:12:13.127Z,17.53
2024-04-11T20:14:50.164Z,19.33
2024-04-11T20:17:30.004Z,19.67
2024-04-11T20:20:03.363Z,18.00
2024-04-11T20:22:48.297Z,18.13
2024-04-11T20:25:16.260Z,16.50
2024-04-11T20:27:47.708Z,17.30
2024-04-11T20:30:16.104Z,17.30
2024-04-11T20:32:50.454Z,17.87
2024-04-11T20:35:30.495Z,16.77
2024-04-11T20:38:02.267Z,17.77
2024-04-11T20:40:45.608Z,17.03
2024-04-11T20:43:20.363Z,16.60
2024-04-11T20:45:49.131Z,17.50
2024-04-11T20:48:17.885Z,16.30
2024-04-11T20:51:07.411Z,18.80
2024-04-11T20:53:54.410Z,18.60
2024-04-11T20:56:41.433Z,19.80
2024-04-11T20:59:31.498Z,19.97
2024-04-11T21:02:18.441Z,19.50
2024-04-11T21:05:05.291Z,19.40
2024-04-11T21:07:51.561Z,20.00
2024-04-11T21:10:37.730Z,20.50
2024-04-11T21:13:25.010Z,20.53
2024-04-11T21:16:11.301Z,20.50
2024-04-11T21:18:58.673Z,19.60
2024-04-11T21:22:04.907Z,20.90
2024-04-11T21:24:51.297Z,19.97
2024-04-11T21:27:38.427Z,19.70
2024-04-11T21:30:25.949Z,20.90
2024-04-11T21:33:12.416Z,22.17
2024-04-11T21:35:40.452Z,22.00
2024-04-11T21:38:09.925Z,22.30
2024-04-11T21:40:37.422Z,21.67
2024-04-11T21:43:06.965Z,22.00
2024-04-11T21:45:40.591Z,22.53
2024-04-11T21:48:11.142Z,21.00
2024-04-11T21:50:44.233Z,21.33
2024-04-11T21:53:21.406Z,22.30
2024-04-11T21:55:50.852Z,20.37
2024-04-11T21:58:19.900Z,20.37
2024-04-11T22:00:52.375Z,19.93
2024-04-11T22:03:25.251Z,22.43
2024-04-11T22:05:54.533Z,22.83
2024-04-11T22:08:23.573Z,20.03
2024-04-11T22:10:54.178Z,20.00
2024-04-11T22:13:23.296Z,20.20
2024-04-11T22:15:55.388Z,19.90
2024-04-11T22:18:34.052Z,20.33
2024-04-11T22:21:24.466Z,18.30
2024-04-11T22:23:54.016Z,19.37
2024-04-11T22:26:22.589Z,17.30
2024-04-11T22:28:50.435Z,18.77
2024-04-11T22:31:18.345Z,18.20
2024-04-11T22:33:50.496Z,18.23
2024-04-11T22:36:22.624Z,18.40
2024-04-11T22:38:53.043Z,16.93
2024-04-11T22:41:22.401Z,17.30
2024-04-11T22:43:58.421Z,17.37
2024-04-11T22:46:37.022Z,16.60
2024-04-11T22:49:32.981Z,17.80
2024-04-11T22:52:05.257Z,17.43
2024-04-11T22:54:32.616Z,17.07
2024-04-11T22:57:00.984Z,17.87
2024-04-11T22:59:37.243Z,17.60
2024-04-11T23:02:16.927Z,18.70
2024-04-11T23:05:00.960Z,17.53
2024-04-11T23:07:37.006Z,17.93
2024-04-11T23:10:21.178Z,18.93
2024-04-11T23:13:05.753Z,18.43
2024-04-11T23:15:49.374Z,20.57
2024-04-11T23:18:19.366Z,19.47
2024-04-11T23:21:09.384Z,17.90
2024-04-11T23:23:42.570Z,20.60
2024-04-11T23:26:16.309Z,21.23
2024-04-11T23:28:47.197Z,18.80
2024-04-11T23:31:16.835Z,17.77
2024-04-11T23:33:58.075Z,18.73
2024-04-11T23:36:30.123Z,18.50
2024-04-11T23:39:01.040Z,18.27
2024-04-11T23:41:35.759Z,18.60
2024-04-11T23:44:08.444Z,17.73
2024-04-11T23:47:01.925Z,18.90
2024-04-11T23:49:29.417Z,17.30
2024-04-11T23:52:06.987Z,17.30
2024-04-11T23:54:35.423Z,17.13
2024-04-11T23:57:04.668Z,16.37
2024-04-11T23:59:41.768Z,17.70
